Flight Track Log - Related Links

Times and Time Zones

All times are in EDT time to prevent confusion due to time zone crossing. See the SKW6526 flight status page for this flight to view local times or setup timezone preferences in your user account.


Time Position Orientation Groundspeed Altitude Reporting Facility
EDT Latitude Longitude Course Direction KTS MPH feet Rate Location/Type
Fri 11:19:43 AM 33.9253 -118.4561 90° East 250 288 2,700  Level Los Angeles Center
Fri 11:20:45 AM 33.8603 -118.4875 202° Southwest 261 300 5,200 1,742 Climbing Los Angeles Center
Fri 11:21:47 AM 33.7914 -118.5019 190° South 275 316 6,300 2,274 Climbing Los Angeles Center
Fri 11:22:00 AM 33.6829 -118.5143 101° East  Level FlightAware Approximate
Fri 11:22:49 AM 33.6997 -118.4992 179° South 293 337 9,900  Level Los Angeles Center
Fri 11:23:00 AM 33.6491 -118.3727 116° Southeast  Level FlightAware Approximate
Fri 11:23:51 AM 33.6639 -118.4108 116° Southeast 304 350 11,800  Level Los Angeles Center
Fri 11:24:00 AM 33.6333 -118.2288 90° East  Level FlightAware Approximate
Fri 11:24:53 AM 33.6431 -118.3106 104° East 318 366 14,500  Level Los Angeles Center
Fri 11:25:00 AM 33.6333 -118.0805 90° East  Level FlightAware Approximate
Fri 11:25:55 AM 33.6439 -118.2017 89° East 333 383 16,800  Level Los Angeles Center
Fri 11:26:57 AM 33.6439 -118.0667 90° East 342 394 19,200 2,177 Climbing Los Angeles Center
Fri 11:27:59 AM 33.6444 -117.9489 90° East 353 406 21,300 1,839 Climbing Los Angeles Center
Fri 11:29:01 AM 33.6433 -117.8283 91° East 361 415 23,000 1,597 Climbing Los Angeles Center
Fri 11:30:03 AM 33.6436 -117.7022 90° East 375 432 24,600 1,500 Climbing Los Angeles Center
Fri 11:31:05 AM 33.6431 -117.5728 90° East 388 447 26,100 1,500 Climbing Los Angeles Center
Fri 11:32:07 AM 33.6422 -117.4114 90° East 402 463 27,700 1,258 Climbing Los Angeles Center
Fri 11:33:09 AM 33.6414 -117.2744 90° East 412 474 28,700 968 Climbing Los Angeles Center
Fri 11:34:11 AM 33.6408 -117.1297 90° East 431 496 29,700 1,016 Climbing Los Angeles Center
Fri 11:35:13 AM 33.6397 -116.9839 90° East 438 504 30,800 629 Climbing Los Angeles Center
Fri 11:36:15 AM 33.6364 -116.8378 92° East 451 519 31,000 97 Climbing Los Angeles Center
Fri 11:37:17 AM 33.6353 -116.6425 90° East 482 555 31,000  Level Los Angeles Center
Fri 11:38:20 AM 33.6333 -116.4783 91° East 490 564 31,000  Level Los Angeles Center
Fri 11:39:22 AM 33.6306 -116.3133 91° East 492 566 31,000  Level Los Angeles Center
Fri 11:40:24 AM 33.6281 -116.1464 91° East 499 574 31,000  Level Los Angeles Center
Fri 11:41:26 AM 33.6242 -115.9794 92° East 497 572 31,000  Level Los Angeles Center
Fri 11:42:40 AM 33.6222 -115.8150 91° East 494 568 31,000  Level Los Angeles Center
Fri 11:43:42 AM 33.6167 -115.6144 92° East 498 573 31,000  Level Los Angeles Center
Fri 11:44:44 AM 33.6117 -115.4156 92° East 498 573 31,000  Level Los Angeles Center
Fri 11:45:46 AM 33.6078 -115.2506 92° East 495 570 31,000  Level Los Angeles Center
Fri 11:46:48 AM 33.6044 -115.0856 91° East 496 571 31,000  Level Los Angeles Center
Fri 11:47:50 AM 33.5944 -114.9231 94° East 490 564 31,000  Level Los Angeles Center
Fri 11:48:53 AM 33.5664 -114.7625 102° East 491 565 31,000  Level Los Angeles Center
Fri 11:49:56 AM 33.5419 -114.5744 99° East 493 567 31,000 -480 Level Albuquerque Center
Fri 11:50:58 AM 33.5167 -114.4133 101° East 492 566 30,000 -1,694 Descending Albuquerque Center
Fri 11:52:00 AM 33.4903 -114.2514 101° East 495 570 27,500 -2,323 Descending Albuquerque Center
Fri 11:53:02 AM 33.4664 -114.0950 100° East 483 556 25,200 -1,258 Descending Albuquerque Center
Fri 11:54:04 AM 33.4392 -113.9564 103° East 442 509 24,900 -871 Descending Albuquerque Center
Fri 11:55:06 AM 33.4050 -113.7894 104° East 431 496 23,400 -1,306 Descending Albuquerque Center
Fri 11:56:08 AM 33.3775 -113.6517 103° East 428 493 22,200 -1,355 Descending Albuquerque Center
Fri 11:57:10 AM 33.3503 -113.5200 104° East 414 476 20,600 -1,645 Descending Albuquerque Center
Fri 11:58:12 AM 33.3239 -113.3903 104° East 405 466 18,800 -1,645 Descending Albuquerque Center
Fri 11:59:14 AM 33.2978 -113.2672 104° East 390 449 17,200 -1,536 Descending Albuquerque Center
Fri 12:00:17 PM 33.2753 -113.1539 103° East 362 417 15,600 -1,056 Descending Albuquerque Center
Fri 12:01:19 PM 33.2753 -113.0464 90° East 330 380 15,000 -1,113 Descending Albuquerque Center
Fri 12:02:21 PM 33.2781 -112.9244 88° East 310 357 13,300 -1,500 Descending Albuquerque Center
Fri 12:03:23 PM 33.2814 -112.8256 88° East 303 349 11,900 -1,258 Descending Albuquerque Center
Fri 12:04:25 PM 33.3117 -112.7408 67° East 280 322 10,700 -1,016 Descending Albuquerque Center
Fri 12:05:27 PM 33.3397 -112.6617 67° East 264 304 9,800 -871 Descending Albuquerque Center
Fri 12:06:29 PM 33.3692 -112.5872 65° Northeast 243 280 8,900 -871 Descending Albuquerque Center
Fri 12:07:31 PM 33.3933 -112.5236 66° East 214 246 8,000 -629 Descending Albuquerque Center
Fri 12:08:33 PM 33.4172 -112.4603 66° East 209 241 7,600 -726 Descending Albuquerque Center
Fri 12:09:35 PM 33.4300 -112.3900 78° East 214 246 6,500 -1,065 Descending Albuquerque Center
Fri 12:10:37 PM 33.4286 -112.3069 91° East 209 241 5,400 -968 Descending Albuquerque Center
Fri 12:11:39 PM 33.4289 -112.2392 90° East 206 237 4,500 -823 Descending Albuquerque Center
Fri 12:12:41 PM 33.4289 -112.1742 90° East 198 228 3,700 -774 Descending Albuquerque Center

Login

Don't have an account? Register now (free) for customized features, flight alerts, and more!